Time;durP1;ratioP1;P1;durP2;ratioP2;P2;SDS_P1;SDS_P2;PMS_P1;PMS_P2;Temp;Humidity;BMP_temperature;BMP_pressure;BME280_temperature;BME280_humidity;BME280_pressure;Samples;Min_cycle;Max_cycle;Signal;HPM_P1;HPM_P2
2021/12/23 00:01:49;;;;;;;27.3;23.4;;;;;;;-1.0;100.0;101440;;;;
2021/12/23 00:07:49;;;;;;;27.3;23.4;;;;;;;-1.1;100.0;101450;;;;
2021/12/23 00:11:49;;;;;;;27.3;23.4;;;;;;;-1.1;100.0;101440;;;;
2021/12/23 00:23:24;;;;;;;25.8;22.8;;;;;;;-1.1;100.0;101430;;;;
2021/12/23 00:23:49;;;;;;;25.8;22.8;;;;;;;-1.0;100.0;101430;;;;
2021/12/23 00:27:49;;;;;;;25.8;22.8;;;;;;;-1.1;100.0;101400;;;;
2021/12/23 00:31:49;;;;;;;25.8;22.8;;;;;;;-1.0;100.0;101400;;;;
2021/12/23 00:33:49;;;;;;;25.8;22.8;;;;;;;-1.2;100.0;101410;;;;
2021/12/23 00:39:49;;;;;;;27.2;23.8;;;;;;;-1.1;100.0;101390;;;;
2021/12/23 00:41:51;;;;;;;27.2;23.8;;;;;;;-1.0;100.0;101380;;;;
2021/12/23 00:45:49;;;;;;;27.2;23.8;;;;;;;-1.1;100.0;101370;;;;
2021/12/23 00:55:51;;;;;;;27.2;23.8;;;;;;;-1.0;100.0;101400;;;;
2021/12/23 01:11:50;;;;;;;24.9;21.8;;;;;;;-1.1;100.0;101380;;;;
2021/12/23 01:16:00;;;;;;;24.9;21.8;;;;;;;-0.9;100.0;101380;;;;
2021/12/23 01:17:57;;;;;;;25.4;22.7;;;;;;;-1.0;100.0;101380;;;;
2021/12/23 01:23:49;;;;;;;25.4;22.7;;;;;;;-0.9;100.0;101380;;;;
2021/12/23 01:27:49;;;;;;;25.4;22.7;;;;;;;-1.1;100.0;101360;;;;
2021/12/23 01:29:49;;;;;;;25.4;22.7;;;;;;;-0.9;100.0;101360;;;;
2021/12/23 01:35:50;;;;;;;25.4;22.7;;;;;;;-1.0;100.0;101350;;;;
2021/12/23 01:37:49;;;;;;;25.3;22.6;;;;;;;-0.9;100.0;101350;;;;
2021/12/23 01:39:49;;;;;;;25.3;22.6;;;;;;;-1.0;100.0;101350;;;;
2021/12/23 01:41:49;;;;;;;25.3;22.6;;;;;;;-0.9;100.0;101350;;;;
2021/12/23 01:43:49;;;;;;;25.3;22.6;;;;;;;-1.0;100.0;101340;;;;
2021/12/23 01:45:49;;;;;;;25.3;22.6;;;;;;;-0.9;100.0;101340;;;;
2021/12/23 01:49:49;;;;;;;25.3;22.6;;;;;;;-1.0;100.0;101340;;;;
2021/12/23 01:53:49;;;;;;;25.3;22.6;;;;;;;-0.9;100.0;101340;;;;
2021/12/23 01:57:49;;;;;;;26.9;22.9;;;;;;;-1.0;100.0;101330;;;;
2021/12/23 02:03:49;;;;;;;26.9;22.9;;;;;;;-0.9;100.0;101330;;;;
2021/12/23 02:05:58;;;;;;;26.9;22.9;;;;;;;-1.0;100.0;101320;;;;
2021/12/23 02:09:49;;;;;;;26.9;22.9;;;;;;;-0.9;100.0;101320;;;;
2021/12/23 02:11:49;;;;;;;26.9;22.9;;;;;;;-1.0;100.0;101310;;;;
2021/12/23 02:19:49;;;;;;;28.5;23.9;;;;;;;-1.1;100.0;101290;;;;
2021/12/23 02:23:49;;;;;;;28.5;23.9;;;;;;;-1.2;100.0;101290;;;;
2021/12/23 02:29:49;;;;;;;28.5;23.9;;;;;;;-1.3;100.0;101290;;;;
2021/12/23 02:33:49;;;;;;;28.5;23.9;;;;;;;-1.4;100.0;101270;;;;
2021/12/23 02:37:49;;;;;;;26.7;23.8;;;;;;;-1.3;100.0;101270;;;;
2021/12/23 02:39:49;;;;;;;26.7;23.8;;;;;;;-1.4;100.0;101270;;;;
2021/12/23 02:47:49;;;;;;;26.7;23.8;;;;;;;-1.5;100.0;101290;;;;
2021/12/23 02:49:49;;;;;;;26.7;23.8;;;;;;;-1.4;100.0;101290;;;;
2021/12/23 02:51:49;;;;;;;26.7;23.8;;;;;;;-1.5;100.0;101290;;;;
2021/12/23 02:53:49;;;;;;;26.7;23.8;;;;;;;-1.3;100.0;101290;;;;
2021/12/23 02:55:49;;;;;;;26.7;23.8;;;;;;;-1.4;100.0;101290;;;;
2021/12/23 02:57:49;;;;;;;26.9;23.7;;;;;;;-1.5;100.0;101280;;;;
2021/12/23 03:01:49;;;;;;;26.9;23.7;;;;;;;-1.4;100.0;101270;;;;
2021/12/23 03:09:49;;;;;;;26.9;23.7;;;;;;;-1.5;100.0;101250;;;;
2021/12/23 03:11:49;;;;;;;26.9;23.7;;;;;;;-1.6;100.0;101250;;;;
2021/12/23 03:15:49;;;;;;;27.0;23.9;;;;;;;-1.5;100.0;101240;;;;
2021/12/23 03:19:49;;;;;;;27.0;23.9;;;;;;;-1.6;100.0;101250;;;;
2021/12/23 03:21:49;;;;;;;27.0;23.9;;;;;;;-1.7;100.0;101240;;;;
2021/12/23 03:23:51;;;;;;;27.0;23.9;;;;;;;-1.8;100.0;101240;;;;
2021/12/23 03:41:49;;;;;;;28.7;25.6;;;;;;;-1.9;100.0;101210;;;;
2021/12/23 03:43:49;;;;;;;28.7;25.6;;;;;;;-2.0;100.0;101210;;;;
2021/12/23 03:47:50;;;;;;;28.7;25.6;;;;;;;-2.1;100.0;101200;;;;
2021/12/23 03:53:49;;;;;;;28.7;25.6;;;;;;;-2.2;100.0;101170;;;;
2021/12/23 04:01:49;;;;;;;33.0;27.1;;;;;;;-2.1;100.0;101150;;;;
2021/12/23 04:03:49;;;;;;;33.0;27.1;;;;;;;-2.2;100.0;101150;;;;
2021/12/23 04:05:49;;;;;;;33.0;27.1;;;;;;;-2.1;100.0;101140;;;;
2021/12/23 04:17:49;;;;;;;29.6;26.1;;;;;;;-2.0;100.0;101140;;;;
2021/12/23 04:19:49;;;;;;;29.6;26.1;;;;;;;-2.1;100.0;101130;;;;
2021/12/23 04:23:49;;;;;;;29.6;26.1;;;;;;;-2.0;100.0;101140;;;;
2021/12/23 04:29:49;;;;;;;29.6;26.1;;;;;;;-2.1;100.0;101150;;;;
2021/12/23 04:31:49;;;;;;;29.6;26.1;;;;;;;-2.0;100.0;101140;;;;
2021/12/23 04:33:49;;;;;;;29.6;26.1;;;;;;;-1.9;100.0;101120;;;;
2021/12/23 04:35:49;;;;;;;28.7;25.7;;;;;;;-2.0;100.0;101120;;;;
2021/12/23 04:37:49;;;;;;;28.7;25.7;;;;;;;-1.9;100.0;101130;;;;
2021/12/23 04:39:49;;;;;;;28.7;25.7;;;;;;;-2.0;100.0;101140;;;;
2021/12/23 04:45:49;;;;;;;28.7;25.7;;;;;;;-2.1;100.0;101120;;;;
2021/12/23 04:47:49;;;;;;;28.7;25.7;;;;;;;-2.0;100.0;101120;;;;
2021/12/23 04:49:49;;;;;;;28.7;25.7;;;;;;;-1.9;100.0;101100;;;;
2021/12/23 04:53:49;;;;;;;28.7;25.7;;;;;;;-1.8;100.0;101100;;;;
2021/12/23 05:01:50;;;;;;;29.8;26.6;;;;;;;-1.7;100.0;101120;;;;
2021/12/23 05:07:49;;;;;;;29.8;26.6;;;;;;;-1.6;100.0;101100;;;;
2021/12/23 05:11:49;;;;;;;29.8;26.6;;;;;;;-1.7;100.0;101090;;;;
2021/12/23 05:15:49;;;;;;;31.2;26.8;;;;;;;-1.6;100.0;101090;;;;
2021/12/23 05:19:49;;;;;;;31.2;26.8;;;;;;;-1.7;100.0;101080;;;;
2021/12/23 05:21:49;;;;;;;31.2;26.8;;;;;;;-1.6;100.0;101080;;;;
2021/12/23 05:23:49;;;;;;;31.2;26.8;;;;;;;-1.5;100.0;101090;;;;
2021/12/23 05:33:49;;;;;;;31.2;26.8;;;;;;;-1.4;100.0;101080;;;;
2021/12/23 05:39:49;;;;;;;31.1;26.3;;;;;;;-1.3;100.0;101070;;;;
2021/12/23 05:45:49;;;;;;;31.1;26.3;;;;;;;-1.2;100.0;101070;;;;
2021/12/23 05:49:49;;;;;;;31.1;26.3;;;;;;;-1.1;100.0;101060;;;;
2021/12/23 05:51:49;;;;;;;31.1;26.3;;;;;;;-1.2;100.0;101060;;;;
2021/12/23 05:55:49;;;;;;;31.5;25.9;;;;;;;-1.3;100.0;101050;;;;
2021/12/23 05:57:49;;;;;;;31.5;25.9;;;;;;;-1.4;100.0;101050;;;;
2021/12/23 05:59:49;;;;;;;31.5;25.9;;;;;;;-1.3;100.0;101050;;;;
2021/12/23 06:01:49;;;;;;;31.5;25.9;;;;;;;-1.4;100.0;101050;;;;
2021/12/23 06:05:49;;;;;;;31.5;25.9;;;;;;;-1.5;100.0;101060;;;;
2021/12/23 06:07:49;;;;;;;31.5;25.9;;;;;;;-1.3;100.0;101060;;;;
2021/12/23 06:09:49;;;;;;;31.5;25.9;;;;;;;-1.4;100.0;101060;;;;
2021/12/23 06:11:49;;;;;;;31.5;25.9;;;;;;;-1.5;100.0;101050;;;;
2021/12/23 06:17:49;;;;;;;32.8;27.5;;;;;;;-1.4;100.0;101050;;;;
2021/12/23 06:19:49;;;;;;;32.8;27.5;;;;;;;-1.5;100.0;101050;;;;
2021/12/23 06:23:49;;;;;;;32.8;27.5;;;;;;;-1.6;100.0;101040;;;;
2021/12/23 06:25:49;;;;;;;32.8;27.5;;;;;;;-1.5;100.0;101040;;;;
2021/12/23 06:27:49;;;;;;;32.8;27.5;;;;;;;-1.4;100.0;101030;;;;
2021/12/23 06:29:49;;;;;;;32.8;27.5;;;;;;;-1.5;100.0;101020;;;;
2021/12/23 06:33:49;;;;;;;32.8;27.5;;;;;;;-1.3;100.0;101020;;;;
2021/12/23 06:35:49;;;;;;;34.0;28.2;;;;;;;-1.4;100.0;101020;;;;
2021/12/23 06:39:49;;;;;;;34.0;28.2;;;;;;;-1.3;100.0;101010;;;;
2021/12/23 06:47:49;;;;;;;34.0;28.2;;;;;;;-1.5;100.0;101000;;;;
2021/12/23 06:49:49;;;;;;;34.0;28.2;;;;;;;-1.4;100.0;101000;;;;
2021/12/23 06:59:49;;;;;;;34.4;28.3;;;;;;;-1.5;100.0;100990;;;;
2021/12/23 07:01:49;;;;;;;34.4;28.3;;;;;;;-1.4;100.0;101000;;;;
2021/12/23 07:05:55;;;;;;;34.4;28.3;;;;;;;-1.2;100.0;101010;;;;
2021/12/23 07:11:49;;;;;;;34.4;28.3;;;;;;;-1.3;100.0;101010;;;;
2021/12/23 07:13:49;;;;;;;34.4;28.3;;;;;;;-1.2;100.0;101020;;;;
2021/12/23 07:15:49;;;;;;;35.2;29.5;;;;;;;-1.1;100.0;101020;;;;
2021/12/23 07:17:49;;;;;;;35.2;29.5;;;;;;;-1.2;100.0;101010;;;;
2021/12/23 07:19:49;;;;;;;35.2;29.5;;;;;;;-1.1;100.0;101010;;;;
2021/12/23 07:23:49;;;;;;;35.2;29.5;;;;;;;-1.0;100.0;101010;;;;
2021/12/23 07:25:49;;;;;;;35.2;29.5;;;;;;;-1.1;100.0;101010;;;;
2021/12/23 07:29:49;;;;;;;35.2;29.5;;;;;;;-1.0;100.0;101010;;;;
2021/12/23 07:31:49;;;;;;;35.2;29.5;;;;;;;-0.9;100.0;101010;;;;
2021/12/23 07:33:49;;;;;;;35.2;29.5;;;;;;;-1.0;100.0;101010;;;;
2021/12/23 07:35:49;;;;;;;34.5;28.0;;;;;;;-0.9;100.0;101000;;;;
2021/12/23 07:37:49;;;;;;;34.5;28.0;;;;;;;-1.0;100.0;101000;;;;
2021/12/23 07:41:59;;;;;;;34.5;28.0;;;;;;;-0.9;100.0;101000;;;;
2021/12/23 07:45:49;;;;;;;34.5;28.0;;;;;;;-0.8;100.0;101000;;;;
2021/12/23 07:51:49;;;;;;;34.5;28.0;;;;;;;-0.9;100.0;101020;;;;
2021/12/23 07:55:49;;;;;;;35.8;27.8;;;;;;;-0.8;100.0;101010;;;;
2021/12/23 07:59:49;;;;;;;35.8;27.8;;;;;;;-0.9;100.0;101010;;;;
2021/12/23 08:01:49;;;;;;;35.8;27.8;;;;;;;-0.8;100.0;101000;;;;
2021/12/23 08:07:49;;;;;;;35.8;27.8;;;;;;;-0.7;100.0;100990;;;;
2021/12/23 08:09:49;;;;;;;35.8;27.8;;;;;;;-0.8;100.0;100990;;;;
2021/12/23 08:11:49;;;;;;;35.8;27.8;;;;;;;-0.7;100.0;100990;;;;
2021/12/23 08:13:50;;;;;;;35.8;27.8;;;;;;;-0.6;100.0;100990;;;;
2021/12/23 08:19:49;;;;;;;33.2;27.6;;;;;;;-0.7;100.0;101000;;;;
2021/12/23 08:21:49;;;;;;;33.2;27.6;;;;;;;-0.6;100.0;100990;;;;
2021/12/23 08:23:49;;;;;;;33.2;27.6;;;;;;;-0.7;100.0;100990;;;;
2021/12/23 08:25:49;;;;;;;33.2;27.6;;;;;;;-0.6;100.0;100990;;;;
2021/12/23 08:33:49;;;;;;;33.2;27.6;;;;;;;-0.5;100.0;101000;;;;
2021/12/23 08:37:49;;;;;;;33.2;28.5;;;;;;;-0.4;100.0;100980;;;;
2021/12/23 08:49:49;;;;;;;33.2;28.5;;;;;;;-0.5;100.0;100960;;;;
2021/12/23 08:51:49;;;;;;;33.2;28.5;;;;;;;-0.4;100.0;100960;;;;
2021/12/23 08:53:49;;;;;;;33.2;28.5;;;;;;;-0.3;100.0;100950;;;;
2021/12/23 08:57:49;;;;;;;32.3;27.5;;;;;;;-0.2;100.0;100940;;;;
2021/12/23 09:01:49;;;;;;;32.3;27.5;;;;;;;-0.3;100.0;100930;;;;
2021/12/23 09:07:49;;;;;;;32.3;27.5;;;;;;;-0.2;100.0;100930;;;;
2021/12/23 09:11:49;;;;;;;32.3;27.5;;;;;;;-0.1;100.0;100940;;;;
2021/12/23 09:13:49;;;;;;;32.3;27.5;;;;;;;-0.2;100.0;100940;;;;
2021/12/23 09:15:49;;;;;;;37.4;30.2;;;;;;;-0.1;100.0;100930;;;;
2021/12/23 09:19:49;;;;;;;37.4;30.2;;;;;;;-0.0;100.0;100920;;;;
2021/12/23 09:21:49;;;;;;;37.4;30.2;;;;;;;-0.1;100.0;100920;;;;
2021/12/23 09:23:49;;;;;;;37.4;30.2;;;;;;;0.1;100.0;100910;;;;
2021/12/23 09:25:49;;;;;;;37.4;30.2;;;;;;;-0.0;100.0;100910;;;;
2021/12/23 09:33:49;;;;;;;36.5;29.5;;;;;;;0.1;100.0;100920;;;;
2021/12/23 09:35:49;;;;;;;36.5;29.5;;;;;;;0.0;100.0;100920;;;;
2021/12/23 09:37:49;;;;;;;36.5;29.5;;;;;;;0.2;100.0;100910;;;;
2021/12/23 09:39:53;;;;;;;36.5;29.5;;;;;;;0.1;100.0;100910;;;;
2021/12/23 09:49:49;;;;;;;36.5;29.5;;;;;;;0.2;100.0;100890;;;;
2021/12/23 09:56:04;;;;;;;38.5;28.9;;;;;;;0.2;100.0;100890;;;;
2021/12/23 09:57:49;;;;;;;38.5;28.9;;;;;;;0.3;100.0;100880;;;;
2021/12/23 10:07:49;;;;;;;38.5;28.9;;;;;;;0.4;100.0;100860;;;;
2021/12/23 10:12:52;;;;;;;38.5;28.9;;;;;;;0.4;100.0;100870;;;;
2021/12/23 10:37:04;;;;;;;34.8;27.9;;;;;;;0.8;100.0;100830;;;;
2021/12/23 10:37:49;;;;;;;34.8;27.9;;;;;;;0.9;100.0;100820;;;;
2021/12/23 10:41:49;;;;;;;34.8;27.9;;;;;;;1.0;100.0;100810;;;;
2021/12/23 10:49:58;;;;;;;34.8;27.9;;;;;;;1.1;100.0;100790;;;;
2021/12/23 11:05:55;;;;;;;35.2;29.1;;;;;;;1.3;100.0;100760;;;;
2021/12/23 11:07:59;;;;;;;35.2;29.1;;;;;;;1.2;100.0;100760;;;;
2021/12/23 11:09:53;;;;;;;35.2;29.1;;;;;;;1.4;100.0;100760;;;;
2021/12/23 11:37:53;;;;;;;34.8;27.2;;;;;;;1.7;100.0;100710;;;;
2021/12/23 11:47:49;;;;;;;34.8;27.2;;;;;;;1.6;100.0;100690;;;;
2021/12/23 11:49:49;;;;;;;34.8;27.2;;;;;;;1.7;100.0;100690;;;;
2021/12/23 11:53:49;;;;;;;34.5;27.3;;;;;;;1.8;100.0;100670;;;;
2021/12/23 11:55:49;;;;;;;34.5;27.3;;;;;;;2.0;100.0;100670;;;;
2021/12/23 12:03:49;;;;;;;34.5;27.3;;;;;;;2.1;100.0;100650;;;;
2021/12/23 12:09:49;;;;;;;34.5;27.3;;;;;;;2.2;100.0;100630;;;;
2021/12/23 12:11:49;;;;;;;34.5;27.3;;;;;;;2.3;100.0;100630;;;;
2021/12/23 12:15:50;;;;;;;31.8;26.0;;;;;;;2.5;100.0;100630;;;;
2021/12/23 12:19:49;;;;;;;31.8;26.0;;;;;;;2.6;100.0;100620;;;;
2021/12/23 12:21:49;;;;;;;31.8;26.0;;;;;;;2.5;100.0;100620;;;;
2021/12/23 12:29:49;;;;;;;31.8;26.0;;;;;;;2.6;100.0;100590;;;;
2021/12/23 12:31:49;;;;;;;31.8;26.0;;;;;;;2.7;100.0;100580;;;;
2021/12/23 12:39:49;;;;;;;31.9;26.0;;;;;;;2.8;100.0;100570;;;;
2021/12/23 12:45:49;;;;;;;31.9;26.0;;;;;;;2.9;100.0;100560;;;;
2021/12/23 12:47:54;;;;;;;31.9;26.0;;;;;;;3.0;100.0;100550;;;;
2021/12/23 13:01:49;;;;;;;32.1;24.6;;;;;;;3.2;100.0;100540;;;;
2021/12/23 13:03:49;;;;;;;32.1;24.6;;;;;;;3.1;100.0;100530;;;;
2021/12/23 13:05:50;;;;;;;32.1;24.6;;;;;;;3.2;100.0;100540;;;;
2021/12/23 13:11:49;;;;;;;32.1;24.6;;;;;;;3.3;100.0;100520;;;;
2021/12/23 13:23:49;;;;;;;32.9;26.3;;;;;;;3.4;100.0;100520;;;;
2021/12/23 13:27:49;;;;;;;32.9;26.3;;;;;;;3.6;100.0;100520;;;;
2021/12/23 13:33:49;;;;;;;29.9;24.6;;;;;;;3.5;100.0;100520;;;;
2021/12/23 13:35:49;;;;;;;29.9;24.6;;;;;;;3.4;100.0;100530;;;;
2021/12/23 13:39:49;;;;;;;29.9;24.6;;;;;;;3.5;100.0;100520;;;;
2021/12/23 13:45:49;;;;;;;29.9;24.6;;;;;;;3.6;100.0;100510;;;;
2021/12/23 13:47:49;;;;;;;29.9;24.6;;;;;;;3.5;100.0;100510;;;;
2021/12/23 13:49:50;;;;;;;29.9;24.6;;;;;;;3.6;100.0;100510;;;;
2021/12/23 13:53:49;;;;;;;28.4;24.2;;;;;;;3.7;100.0;100500;;;;
2021/12/23 13:55:50;;;;;;;28.4;24.2;;;;;;;3.8;100.0;100500;;;;
2021/12/23 13:57:51;;;;;;;28.4;24.2;;;;;;;3.6;100.0;100500;;;;
2021/12/23 14:03:49;;;;;;;28.4;24.2;;;;;;;3.7;100.0;100510;;;;
2021/12/23 14:09:49;;;;;;;28.4;24.2;;;;;;;3.6;100.0;100500;;;;
2021/12/23 14:13:49;;;;;;;28.3;23.7;;;;;;;3.7;100.0;100490;;;;
2021/12/23 14:15:49;;;;;;;28.3;23.7;;;;;;;3.5;100.0;100500;;;;
2021/12/23 14:17:49;;;;;;;28.3;23.7;;;;;;;3.6;100.0;100500;;;;
2021/12/23 14:23:11;;;;;;;28.3;23.7;;;;;;;3.7;100.0;100500;;;;
2021/12/23 14:25:49;;;;;;;28.3;23.7;;;;;;;3.7;100.0;100500;;;;
2021/12/23 14:35:49;;;;;;;30.4;25.9;;;;;;;3.6;100.0;100490;;;;
2021/12/23 14:37:49;;;;;;;30.4;25.9;;;;;;;3.7;100.0;100500;;;;
2021/12/23 14:39:49;;;;;;;30.4;25.9;;;;;;;3.6;100.0;100490;;;;
2021/12/23 14:41:49;;;;;;;30.4;25.9;;;;;;;3.7;100.0;100480;;;;
2021/12/23 14:45:49;;;;;;;30.4;25.9;;;;;;;3.6;100.0;100480;;;;
2021/12/23 14:47:50;;;;;;;30.4;25.9;;;;;;;3.7;100.0;100490;;;;
2021/12/23 14:51:57;;;;;;;30.4;25.9;;;;;;;3.7;100.0;100490;;;;
2021/12/23 14:53:49;;;;;;;34.2;26.4;;;;;;;3.8;100.0;100490;;;;
2021/12/23 14:57:49;;;;;;;34.2;26.4;;;;;;;3.7;100.0;100480;;;;
2021/12/23 14:59:49;;;;;;;34.2;26.4;;;;;;;3.6;100.0;100490;;;;
2021/12/23 15:03:49;;;;;;;34.2;26.4;;;;;;;3.7;100.0;100480;;;;
2021/12/23 15:07:49;;;;;;;34.2;26.4;;;;;;;3.6;100.0;100500;;;;
2021/12/23 15:11:49;;;;;;;34.2;26.4;;;;;;;3.7;100.0;100500;;;;
2021/12/23 15:17:54;;;;;;;32.2;27.2;;;;;;;3.8;100.0;100510;;;;
2021/12/23 15:19:51;;;;;;;32.2;27.2;;;;;;;3.7;100.0;100510;;;;
2021/12/23 15:27:50;;;;;;;32.2;27.2;;;;;;;3.6;100.0;100510;;;;
2021/12/23 15:29:50;;;;;;;32.2;27.2;;;;;;;3.7;100.0;100520;;;;
2021/12/23 15:31:49;;;;;;;32.2;27.2;;;;;;;3.6;100.0;100530;;;;
2021/12/23 15:33:49;;;;;;;34.3;27.2;;;;;;;3.7;100.0;100530;;;;
2021/12/23 15:39:49;;;;;;;34.3;27.2;;;;;;;3.6;100.0;100530;;;;
2021/12/23 15:41:49;;;;;;;34.3;27.2;;;;;;;3.7;100.0;100530;;;;
2021/12/23 15:45:49;;;;;;;34.3;27.2;;;;;;;3.6;100.0;100520;;;;
2021/12/23 15:47:51;;;;;;;34.3;27.2;;;;;;;3.7;100.0;100520;;;;
2021/12/23 15:49:49;;;;;;;34.3;27.2;;;;;;;3.6;100.0;100520;;;;
2021/12/23 15:53:49;;;;;;;37.2;29.0;;;;;;;3.7;100.0;100540;;;;
2021/12/23 15:59:51;;;;;;;37.2;29.0;;;;;;;3.8;100.0;100550;;;;
2021/12/23 16:15:49;;;;;;;37.7;30.6;;;;;;;3.7;100.0;100530;;;;
2021/12/23 16:17:49;;;;;;;37.7;30.6;;;;;;;3.8;100.0;100520;;;;
2021/12/23 16:23:49;;;;;;;37.7;30.6;;;;;;;3.7;100.0;100510;;;;
2021/12/23 16:29:49;;;;;;;37.7;30.6;;;;;;;3.8;100.0;100520;;;;
2021/12/23 16:35:50;;;;;;;38.2;29.3;;;;;;;3.9;100.0;100520;;;;
2021/12/23 16:39:50;;;;;;;38.2;29.3;;;;;;;3.8;100.0;100510;;;;
2021/12/23 16:41:49;;;;;;;38.2;29.3;;;;;;;4.0;100.0;100500;;;;
2021/12/23 16:43:49;;;;;;;38.2;29.3;;;;;;;3.9;100.0;100500;;;;
2021/12/23 16:47:49;;;;;;;38.2;29.3;;;;;;;4.0;100.0;100500;;;;
2021/12/23 16:51:49;;;;;;;40.5;31.3;;;;;;;3.9;100.0;100500;;;;
2021/12/23 17:03:49;;;;;;;40.5;31.3;;;;;;;3.9;100.0;100500;;;;
2021/12/23 17:07:49;;;;;;;40.5;31.3;;;;;;;3.8;100.0;100490;;;;
2021/12/23 17:09:49;;;;;;;40.5;31.3;;;;;;;3.9;100.0;100500;;;;
2021/12/23 17:13:49;;;;;;;45.8;33.9;;;;;;;4.0;100.0;100510;;;;
2021/12/23 17:15:49;;;;;;;45.8;33.9;;;;;;;3.9;100.0;100510;;;;
2021/12/23 19:02:46;;;;;;;61.5;38.3;;;;;;;4.3;100.0;100360;;;;
2021/12/23 19:06:36;;;;;;;61.5;38.3;;;;;;;4.2;100.0;100350;;;;
2021/12/23 19:08:34;;;;;;;61.5;38.3;;;;;;;4.3;100.0;100350;;;;
2021/12/23 19:10:34;;;;;;;61.5;38.3;;;;;;;4.4;100.0;100350;;;;
2021/12/23 19:28:34;;;;;;;67.9;41.0;;;;;;;4.5;100.0;100350;;;;
2021/12/23 19:38:34;;;;;;;70.5;42.8;;;;;;;4.6;100.0;100350;;;;
2021/12/23 19:40:34;;;;;;;70.5;42.8;;;;;;;4.7;100.0;100350;;;;
2021/12/23 19:42:34;;;;;;;70.5;42.8;;;;;;;4.6;100.0;100360;;;;
2021/12/23 19:46:34;;;;;;;70.5;42.8;;;;;;;4.7;100.0;100350;;;;
2021/12/23 19:48:34;;;;;;;70.5;42.8;;;;;;;4.6;100.0;100350;;;;
2021/12/23 19:52:38;;;;;;;78.3;44.3;;;;;;;4.7;100.0;100350;;;;
2021/12/23 19:54:36;;;;;;;78.3;44.3;;;;;;;4.8;100.0;100350;;;;
2021/12/23 20:00:34;;;;;;;78.3;44.3;;;;;;;4.9;100.0;100350;;;;
2021/12/23 20:04:34;;;;;;;78.3;44.3;;;;;;;4.8;100.0;100350;;;;
2021/12/23 20:08:34;;;;;;;78.3;44.3;;;;;;;4.9;100.0;100350;;;;
2021/12/23 20:16:34;;;;;;;77.6;44.3;;;;;;;5.0;100.0;100360;;;;
2021/12/23 20:24:39;;;;;;;77.6;44.3;;;;;;;4.9;100.0;100350;;;;
2021/12/23 20:26:40;;;;;;;77.6;44.3;;;;;;;5.0;100.0;100350;;;;
2021/12/23 20:28:34;;;;;;;77.6;44.3;;;;;;;5.1;100.0;100340;;;;
2021/12/23 20:30:34;;;;;;;77.6;44.3;;;;;;;5.0;100.0;100350;;;;
2021/12/23 20:38:34;;;;;;;73.1;42.3;;;;;;;5.2;100.0;100340;;;;
2021/12/23 20:46:34;;;;;;;73.1;42.3;;;;;;;5.1;100.0;100330;;;;
2021/12/23 20:48:34;;;;;;;73.1;42.3;;;;;;;5.2;100.0;100330;;;;
2021/12/23 20:56:34;;;;;;;59.9;40.0;;;;;;;5.3;100.0;100320;;;;
2021/12/23 20:58:34;;;;;;;59.9;40.0;;;;;;;5.2;100.0;100320;;;;
2021/12/23 21:02:34;;;;;;;59.9;40.0;;;;;;;5.3;100.0;100310;;;;
2021/12/23 21:14:36;;;;;;;60.8;41.6;;;;;;;5.4;100.0;100300;;;;
2021/12/23 21:18:34;;;;;;;60.8;41.6;;;;;;;5.5;100.0;100300;;;;
2021/12/23 21:20:34;;;;;;;60.8;41.6;;;;;;;5.4;100.0;100300;;;;
2021/12/23 21:22:34;;;;;;;60.8;41.6;;;;;;;5.5;100.0;100300;;;;
2021/12/23 21:30:34;;;;;;;62.7;44.3;;;;;;;5.6;100.0;100310;;;;
2021/12/23 21:32:34;;;;;;;62.7;44.3;;;;;;;5.5;100.0;100310;;;;
2021/12/23 21:36:40;;;;;;;62.7;44.3;;;;;;;5.6;100.0;100300;;;;
2021/12/23 21:40:34;;;;;;;62.7;44.3;;;;;;;5.7;100.0;100300;;;;
2021/12/23 21:42:34;;;;;;;62.7;44.3;;;;;;;5.6;100.0;100290;;;;
2021/12/23 21:46:34;;;;;;;62.7;44.3;;;;;;;5.7;100.0;100300;;;;
2021/12/23 21:58:34;;;;;;;76.5;49.6;;;;;;;5.8;100.0;100300;;;;
2021/12/23 22:04:34;;;;;;;76.5;49.6;;;;;;;5.9;100.0;100290;;;;
2021/12/23 22:08:34;;;;;;;76.5;49.6;;;;;;;6.0;100.0;100280;;;;
2021/12/23 22:10:34;;;;;;;95.1;56.4;;;;;;;5.9;100.0;100290;;;;
2021/12/23 22:14:34;;;;;;;95.1;56.4;;;;;;;6.1;100.0;100280;;;;
2021/12/23 22:16:34;;;;;;;95.1;56.4;;;;;;;6.0;100.0;100280;;;;
2021/12/23 22:18:34;;;;;;;95.1;56.4;;;;;;;5.9;100.0;100280;;;;
2021/12/23 22:20:34;;;;;;;95.1;56.4;;;;;;;6.0;100.0;100280;;;;
2021/12/23 22:22:34;;;;;;;95.1;56.4;;;;;;;6.1;100.0;100270;;;;
2021/12/23 22:24:34;;;;;;;95.1;56.4;;;;;;;5.9;100.0;100270;;;;
2021/12/23 22:26:34;;;;;;;95.1;56.4;;;;;;;6.0;100.0;100270;;;;
2021/12/23 22:28:34;;;;;;;95.1;56.4;;;;;;;6.2;100.0;100270;;;;
2021/12/23 22:30:34;;;;;;;105.1;59.4;;;;;;;6.1;100.0;100270;;;;
2021/12/23 22:34:34;;;;;;;105.1;59.4;;;;;;;6.2;100.0;100270;;;;
2021/12/23 22:36:34;;;;;;;105.1;59.4;;;;;;;6.1;100.0;100270;;;;
2021/12/23 22:42:34;;;;;;;105.1;59.4;;;;;;;6.2;100.0;100280;;;;
2021/12/23 22:56:34;;;;;;;99.4;60.7;;;;;;;6.4;100.0;100260;;;;
2021/12/23 22:58:34;;;;;;;99.4;60.7;;;;;;;6.3;100.0;100260;;;;
2021/12/23 23:00:35;;;;;;;99.4;60.7;;;;;;;6.4;100.0;100270;;;;
2021/12/23 23:02:35;;;;;;;99.4;60.7;;;;;;;6.5;100.0;100260;;;;
2021/12/23 23:06:34;;;;;;;99.4;60.7;;;;;;;6.4;100.0;100270;;;;
2021/12/23 23:14:47;;;;;;;107.9;63.1;;;;;;;6.3;100.0;100270;;;;
2021/12/23 23:18:34;;;;;;;107.9;63.1;;;;;;;6.4;100.0;100270;;;;
2021/12/23 23:22:34;;;;;;;107.9;63.1;;;;;;;6.3;100.0;100270;;;;
2021/12/23 23:26:43;;;;;;;107.9;63.1;;;;;;;6.4;100.0;100260;;;;
2021/12/23 23:40:36;;;;;;;126.6;67.3;;;;;;;6.6;100.0;100260;;;;
2021/12/23 23:48:34;;;;;;;126.6;67.3;;;;;;;6.7;100.0;100260;;;;
2021/12/23 23:52:34;;;;;;;116.4;63.5;;;;;;;6.6;100.0;100250;;;;
2021/12/23 23:54:34;;;;;;;116.4;63.5;;;;;;;6.7;100.0;100250;;;;
